Time;durP1;ratioP1;P1;durP2;ratioP2;P2;SDS_P1;SDS_P2;PMS_P1;PMS_P2;Temp;Humidity;BMP_temperature;BMP_pressure;BME280_temperature;BME280_humidity;BME280_pressure;Samples;Min_cycle;Max_cycle;Signal;HPM_P1;HPM_P2
2021/09/14 00:01:21;;;;;;;11.50;8.93;;;;;;;;;;5055206;28;20444;-72
2021/09/14 00:03:49;;;;;;;16.90;8.60;;;;;;;;;;5054852;28;20445;-72
2021/09/14 00:06:17;;;;;;;12.13;9.50;;;;;;;;;;5055337;28;20481;-72
2021/09/14 00:08:44;;;;;;;14.50;13.00;;;;;;;;;;5055290;28;20445;-72
2021/09/14 00:11:11;;;;;;;12.83;11.40;;;;;;;;;;5055030;28;20448;-72
2021/09/14 00:13:38;;;;;;;11.47;10.27;;;;;;;;;;5055317;28;20448;-70
2021/09/14 00:16:05;;;;;;;15.67;10.40;;;;;;;;;;5054761;28;20448;-72
2021/09/14 00:18:33;;;;;;;11.23;10.13;;;;;;;;;;5054922;28;20443;-74
2021/09/14 00:21:01;;;;;;;12.90;10.27;;;;;;;;;;5054540;28;20948;-70
2021/09/14 00:23:28;;;;;;;12.40;11.13;;;;;;;;;;5054432;28;20478;-71
2021/09/14 00:25:55;;;;;;;13.10;10.70;;;;;;;;;;5054617;28;20441;-71
2021/09/14 00:28:23;;;;;;;12.30;10.47;;;;;;;;;;5055171;28;20468;-70
2021/09/14 00:30:50;;;;;;;10.83;9.73;;;;;;;;;;5054998;28;20438;-70
2021/09/14 00:33:19;;;;;;;11.80;10.00;;;;;;;;;;5054831;28;20529;-70
2021/09/14 00:35:46;;;;;;;10.77;9.73;;;;;;;;;;5055127;28;20449;-71
2021/09/14 00:38:14;;;;;;;13.43;9.50;;;;;;;;;;5054519;28;20467;-71
2021/09/14 00:40:41;;;;;;;11.00;9.80;;;;;;;;;;5054918;28;20442;-71
2021/09/14 00:43:09;;;;;;;14.23;10.77;;;;;;;;;;5054135;28;20448;-73
2021/09/14 00:45:36;;;;;;;15.23;10.53;;;;;;;;;;5054041;28;20936;-71
2021/09/14 00:48:03;;;;;;;19.20;11.40;;;;;;;;;;5053883;28;20478;-71
2021/09/14 00:50:30;;;;;;;14.03;12.63;;;;;;;;;;5054056;28;20469;-71
2021/09/14 00:52:58;;;;;;;15.60;12.43;;;;;;;;;;5054189;28;20488;-71
2021/09/14 00:55:28;;;;;;;23.77;13.30;;;;;;;;;;5054194;28;20516;-71
2021/09/14 00:57:55;;;;;;;14.47;10.63;;;;;;;;;;5054025;28;20445;-70
2021/09/14 01:00:22;;;;;;;15.30;12.37;;;;;;;;;;5053811;28;20451;-70
2021/09/14 01:02:50;;;;;;;13.43;10.97;;;;;;;;;;5054297;28;20442;-70
2021/09/14 01:05:17;;;;;;;15.93;12.83;;;;;;;;;;5053692;28;20439;-71
2021/09/14 01:07:45;;;;;;;14.97;11.53;;;;;;;;;;5053990;28;20481;-70
2021/09/14 01:10:12;;;;;;;15.90;12.00;;;;;;;;;;5053689;28;20992;-71
2021/09/14 01:12:42;;;;;;;15.63;12.63;;;;;;;;;;5053904;28;20449;-71
2021/09/14 01:15:10;;;;;;;17.07;13.20;;;;;;;;;;5054123;28;20444;-71
2021/09/14 01:17:37;;;;;;;17.93;12.83;;;;;;;;;;5053832;28;20457;-71
2021/09/14 01:20:05;;;;;;;16.87;13.40;;;;;;;;;;5053760;28;20434;-71
2021/09/14 01:22:33;;;;;;;15.63;13.33;;;;;;;;;;5053753;28;20449;-71
2021/09/14 01:25:01;;;;;;;13.23;11.83;;;;;;;;;;5053401;28;20442;-71
2021/09/14 01:27:28;;;;;;;17.63;13.37;;;;;;;;;;5053420;28;20473;-70
2021/09/14 01:30:14;;;;;;;17.40;13.77;;;;;;;;;;5053574;28;20449;-70
2021/09/14 01:32:43;;;;;;;15.30;13.20;;;;;;;;;;5054495;28;20482;-71
2021/09/14 01:35:12;;;;;;;14.30;12.77;;;;;;;;;;5053549;28;20453;-71
2021/09/14 01:37:40;;;;;;;14.97;13.30;;;;;;;;;;5053513;28;20433;-70
2021/09/14 01:40:08;;;;;;;18.03;13.60;;;;;;;;;;5053675;28;20448;-70
2021/09/14 01:42:35;;;;;;;20.80;14.20;;;;;;;;;;5053696;28;20442;-70
2021/09/14 01:45:02;;;;;;;15.70;12.97;;;;;;;;;;5053510;28;20449;-71
2021/09/14 01:47:29;;;;;;;25.20;13.37;;;;;;;;;;5053441;28;20477;-71
2021/09/14 01:49:56;;;;;;;18.43;13.37;;;;;;;;;;5053389;28;20475;-70
2021/09/14 01:52:26;;;;;;;15.77;13.47;;;;;;;;;;5053391;28;20450;-70
2021/09/14 01:54:55;;;;;;;14.37;12.63;;;;;;;;;;5053396;28;20948;-71
2021/09/14 01:57:28;;;;;;;19.10;14.27;;;;;;;;;;5053373;28;20808;-71
2021/09/14 01:59:56;;;;;;;15.00;12.30;;;;;;;;;;5052988;28;21001;-72
2021/09/14 02:02:34;;;;;;;15.53;12.53;;;;;;;;;;5053400;28;20819;-72
2021/09/14 02:05:06;;;;;;;17.03;12.50;;;;;;;;;;5053856;28;20796;-71
2021/09/14 02:07:44;;;;;;;19.93;14.30;;;;;;;;;;5053533;28;20466;-72
2021/09/14 02:59:57;;;;;;;23.23;15.10;;;;;;;;;;5106957;27;20776;-70
2021/09/14 03:02:26;;;;;;;20.57;15.40;;;;;;;;;;5152097;27;20957;-70
2021/09/14 03:04:53;;;;;;;20.47;16.23;;;;;;;;;;5152275;27;20482;-70
2021/09/14 03:07:20;;;;;;;21.67;15.67;;;;;;;;;;5152566;27;20439;-69
2021/09/14 03:09:47;;;;;;;22.37;15.30;;;;;;;;;;5152237;27;20441;-70
2021/09/14 03:12:15;;;;;;;20.30;15.70;;;;;;;;;;5151901;27;20511;-70
2021/09/14 03:14:44;;;;;;;18.20;14.23;;;;;;;;;;5151747;27;20442;-70
2021/09/14 03:17:11;;;;;;;19.40;15.07;;;;;;;;;;5152338;27;20771;-70
2021/09/14 03:19:39;;;;;;;25.03;15.30;;;;;;;;;;5152371;27;20805;-70
2021/09/14 03:22:07;;;;;;;18.50;14.13;;;;;;;;;;5152122;27;20455;-71
2021/09/14 03:24:34;;;;;;;21.73;16.00;;;;;;;;;;5152076;27;20472;-70
2021/09/14 03:27:01;;;;;;;19.60;14.30;;;;;;;;;;5151579;27;20444;-70
2021/09/14 03:29:28;;;;;;;16.53;14.43;;;;;;;;;;5151551;27;20444;-70
2021/09/14 03:31:55;;;;;;;20.17;14.97;;;;;;;;;;5151571;27;20445;-70
2021/09/14 03:34:22;;;;;;;18.23;14.40;;;;;;;;;;5151415;27;20441;-71
2021/09/14 03:36:51;;;;;;;21.93;14.50;;;;;;;;;;5151453;27;20960;-69
2021/09/14 03:39:18;;;;;;;16.47;14.10;;;;;;;;;;5152251;27;20520;-70
2021/09/14 03:41:45;;;;;;;21.10;16.57;;;;;;;;;;5151642;27;20433;-70
2021/09/14 03:44:12;;;;;;;23.47;15.30;;;;;;;;;;5151706;27;20484;-69
2021/09/14 03:46:40;;;;;;;23.83;16.10;;;;;;;;;;5151550;27;20438;-70
2021/09/14 03:49:07;;;;;;;24.63;17.17;;;;;;;;;;5151273;27;20441;-70
2021/09/14 03:51:34;;;;;;;18.40;14.67;;;;;;;;;;5151462;27;20444;-70
2021/09/14 03:54:02;;;;;;;23.80;15.47;;;;;;;;;;5151817;27;20446;-70
2021/09/14 03:56:30;;;;;;;21.43;16.40;;;;;;;;;;5143223;27;20430;-70
2021/09/14 03:58:57;;;;;;;21.00;14.73;;;;;;;;;;5137516;27;20457;-70
2021/09/14 04:01:24;;;;;;;22.10;15.53;;;;;;;;;;5137038;27;20961;-70
2021/09/14 04:03:56;;;;;;;26.50;15.90;;;;;;;;;;5137439;27;20440;-70
2021/09/14 04:06:41;;;;;;;20.80;14.27;;;;;;;;;;5137411;27;20552;-70
2021/09/14 04:09:10;;;;;;;24.77;16.00;;;;;;;;;;5137119;27;20430;-70
2021/09/14 04:11:37;;;;;;;20.90;14.97;;;;;;;;;;5137568;27;20495;-70
2021/09/14 04:14:04;;;;;;;21.33;16.40;;;;;;;;;;5136990;27;20533;-78
2021/09/14 04:16:32;;;;;;;20.77;15.23;;;;;;;;;;5136859;27;20434;-70
2021/09/14 04:18:59;;;;;;;27.90;17.63;;;;;;;;;;5136894;27;20439;-68
2021/09/14 04:21:26;;;;;;;20.60;16.37;;;;;;;;;;5137087;27;20914;-69
2021/09/14 04:23:53;;;;;;;26.00;17.40;;;;;;;;;;5137048;27;20438;-69
2021/09/14 04:26:22;;;;;;;20.73;15.63;;;;;;;;;;5137032;27;20469;-69
2021/09/14 04:28:49;;;;;;;26.67;16.47;;;;;;;;;;5136483;27;20516;-69
2021/09/14 04:31:16;;;;;;;26.77;15.50;;;;;;;;;;5135552;27;20445;-68
2021/09/14 04:33:43;;;;;;;24.33;15.57;;;;;;;;;;5136582;27;20445;-69
2021/09/14 04:36:10;;;;;;;28.93;16.30;;;;;;;;;;5136531;27;20550;-69
2021/09/14 04:38:41;;;;;;;21.47;16.40;;;;;;;;;;5136405;27;20948;-69
2021/09/14 04:41:08;;;;;;;22.67;17.60;;;;;;;;;;5136797;27;20438;-69
2021/09/14 04:43:37;;;;;;;24.50;16.40;;;;;;;;;;5135056;27;20438;-69
2021/09/14 04:46:04;;;;;;;20.37;15.23;;;;;;;;;;5134874;27;20477;-69
2021/09/14 04:48:32;;;;;;;24.50;15.77;;;;;;;;;;5136597;27;20434;-70
2021/09/14 04:50:59;;;;;;;25.00;16.97;;;;;;;;;;5135918;27;20741;-69
2021/09/14 04:53:26;;;;;;;22.37;16.10;;;;;;;;;;5135371;27;20448;-70
2021/09/14 04:55:53;;;;;;;25.10;17.07;;;;;;;;;;5135184;27;20446;-68
2021/09/14 04:58:20;;;;;;;24.17;17.60;;;;;;;;;;5136279;27;20528;-69
2021/09/14 05:00:49;;;;;;;26.80;17.13;;;;;;;;;;5134474;27;20448;-69
2021/09/14 05:03:16;;;;;;;22.03;15.77;;;;;;;;;;5135711;27;20453;-68
2021/09/14 05:05:43;;;;;;;21.00;15.87;;;;;;;;;;5135463;27;21000;-68
2021/09/14 05:08:10;;;;;;;22.67;15.47;;;;;;;;;;5134796;27;20446;-68
2021/09/14 05:10:38;;;;;;;20.83;15.80;;;;;;;;;;5136070;27;20449;-69
2021/09/14 05:13:05;;;;;;;23.23;16.53;;;;;;;;;;5136245;27;20452;-71
2021/09/14 05:15:32;;;;;;;17.90;14.97;;;;;;;;;;5135534;27;20458;-68
2021/09/14 05:18:08;;;;;;;19.77;15.83;;;;;;;;;;5135629;27;20442;-70
2021/09/14 05:20:36;;;;;;;18.93;15.00;;;;;;;;;;5136741;27;20429;-69
2021/09/14 05:23:12;;;;;;;20.17;15.73;;;;;;;;;;5135891;27;20528;-69
2021/09/14 05:25:39;;;;;;;24.63;18.23;;;;;;;;;;5135874;27;20466;-69
2021/09/14 05:28:06;;;;;;;20.00;15.67;;;;;;;;;;5135460;27;20524;-69
2021/09/14 05:30:33;;;;;;;17.67;14.50;;;;;;;;;;5135428;27;20961;-71
2021/09/14 05:33:02;;;;;;;19.53;14.70;;;;;;;;;;5135650;27;20438;-70
2021/09/14 05:35:35;;;;;;;22.80;15.10;;;;;;;;;;5135502;27;20450;-70
2021/09/14 05:38:02;;;;;;;18.63;15.70;;;;;;;;;;5135816;27;20422;-70
2021/09/14 05:40:29;;;;;;;21.60;15.37;;;;;;;;;;5135352;27;20972;-70
2021/09/14 05:42:57;;;;;;;26.97;16.40;;;;;;;;;;5135478;27;20445;-70
2021/09/14 05:45:24;;;;;;;21.47;15.97;;;;;;;;;;5135234;27;20828;-71
2021/09/14 05:47:51;;;;;;;24.10;18.10;;;;;;;;;;5135417;27;20445;-70
2021/09/14 05:50:19;;;;;;;21.27;15.17;;;;;;;;;;5135649;27;20438;-70
2021/09/14 05:52:47;;;;;;;23.70;16.43;;;;;;;;;;5135595;27;20809;-70
2021/09/14 05:55:14;;;;;;;22.17;16.20;;;;;;;;;;5135147;27;20441;-70
2021/09/14 05:57:41;;;;;;;19.10;15.37;;;;;;;;;;5135130;27;20438;-70
2021/09/14 06:00:09;;;;;;;18.53;15.30;;;;;;;;;;5135266;27;20444;-70
2021/09/14 06:02:36;;;;;;;18.83;14.97;;;;;;;;;;5134723;27;20459;-71
2021/09/14 06:05:05;;;;;;;19.43;14.33;;;;;;;;;;5134548;27;20469;-71
2021/09/14 06:07:38;;;;;;;22.23;15.17;;;;;;;;;;5134915;27;20433;-70
2021/09/14 06:10:05;;;;;;;17.87;14.20;;;;;;;;;;5134757;27;20507;-70
2021/09/14 06:12:33;;;;;;;16.47;13.53;;;;;;;;;;5134813;27;20476;-70
2021/09/14 06:15:00;;;;;;;18.80;13.30;;;;;;;;;;5134600;27;20474;-70
2021/09/14 06:17:27;;;;;;;22.23;15.27;;;;;;;;;;5134396;27;20450;-71
2021/09/14 06:19:54;;;;;;;26.27;17.63;;;;;;;;;;5134355;27;20442;-70
2021/09/14 06:22:21;;;;;;;23.10;14.07;;;;;;;;;;5134694;27;20430;-70
2021/09/14 06:24:50;;;;;;;20.10;14.90;;;;;;;;;;5134194;27;20486;-70
2021/09/14 06:27:18;;;;;;;20.97;15.10;;;;;;;;;;5135442;27;20451;-70
2021/09/14 06:29:45;;;;;;;16.57;14.70;;;;;;;;;;5134536;27;20438;-70
2021/09/14 06:32:12;;;;;;;20.13;15.23;;;;;;;;;;5134641;27;20430;-71
2021/09/14 06:34:39;;;;;;;18.40;14.20;;;;;;;;;;5134427;27;20437;-70
2021/09/14 06:37:08;;;;;;;22.93;14.87;;;;;;;;;;5135056;27;20633;-70
2021/09/14 06:39:35;;;;;;;18.70;14.93;;;;;;;;;;5134197;27;20520;-70
2021/09/14 06:42:04;;;;;;;17.07;14.40;;;;;;;;;;5134437;27;20441;-71
2021/09/14 06:44:32;;;;;;;16.40;14.67;;;;;;;;;;5134344;28;21004;-70
2021/09/14 06:46:59;;;;;;;23.00;14.50;;;;;;;;;;5134354;28;20469;-70
2021/09/14 06:49:29;;;;;;;16.40;13.67;;;;;;;;;;5134601;28;20785;-70
2021/09/14 06:51:56;;;;;;;17.03;13.33;;;;;;;;;;5134389;28;20446;-70
2021/09/14 06:54:23;;;;;;;18.70;14.40;;;;;;;;;;5134934;28;20555;-70
2021/09/14 06:56:50;;;;;;;15.97;12.00;;;;;;;;;;5133980;28;20456;-70
2021/09/14 06:59:19;;;;;;;17.13;13.77;;;;;;;;;;5134349;28;20450;-70
2021/09/14 07:01:47;;;;;;;69.17;20.90;;;;;;;;;;5134317;28;20438;-70
2021/09/14 07:04:15;;;;;;;46.93;13.90;;;;;;;;;;5134368;28;20779;-71
2021/09/14 07:06:42;;;;;;;26.33;15.50;;;;;;;;;;5134147;28;20493;-70
2021/09/14 07:09:09;;;;;;;22.77;12.77;;;;;;;;;;5134171;28;20440;-71
2021/09/14 07:11:37;;;;;;;14.33;12.77;;;;;;;;;;5133884;28;20522;-70
2021/09/14 07:14:04;;;;;;;397.10;42.40;;;;;;;;;;5133764;28;20923;-71
2021/09/14 07:16:32;;;;;;;120.97;22.60;;;;;;;;;;5134199;28;20444;-70
2021/09/14 07:19:00;;;;;;;28.07;14.93;;;;;;;;;;5133791;28;20441;-71
2021/09/14 07:21:27;;;;;;;17.70;12.60;;;;;;;;;;5133762;28;20924;-70
2021/09/14 07:23:54;;;;;;;18.20;13.80;;;;;;;;;;5134431;28;20915;-70
2021/09/14 07:26:21;;;;;;;25.07;12.00;;;;;;;;;;5134241;28;20483;-70
2021/09/14 07:28:48;;;;;;;15.57;12.57;;;;;;;;;;5133738;28;20438;-70
2021/09/14 07:31:16;;;;;;;15.20;12.87;;;;;;;;;;5135280;27;20529;-71
2021/09/14 07:33:44;;;;;;;18.70;14.90;;;;;;;;;;5137870;27;20453;-70
2021/09/14 07:36:11;;;;;;;15.40;13.00;;;;;;;;;;5137555;27;20441;-70
2021/09/14 07:38:39;;;;;;;22.90;14.10;;;;;;;;;;5137589;27;20915;-70
2021/09/14 07:41:06;;;;;;;14.73;13.13;;;;;;;;;;5137532;27;20439;-70
2021/09/14 07:43:34;;;;;;;12.93;11.10;;;;;;;;;;5137533;27;20435;-70
2021/09/14 07:46:01;;;;;;;19.17;11.80;;;;;;;;;;5137215;27;20490;-71
2021/09/14 07:48:28;;;;;;;18.80;13.17;;;;;;;;;;5138027;27;20444;-71
2021/09/14 07:50:57;;;;;;;17.43;13.70;;;;;;;;;;5137591;27;20440;-71
2021/09/14 07:53:24;;;;;;;37.17;15.50;;;;;;;;;;5137716;27;20940;-71
2021/09/14 07:55:51;;;;;;;19.50;13.00;;;;;;;;;;5137707;27;20442;-71
2021/09/14 07:58:18;;;;;;;17.50;12.83;;;;;;;;;;5137451;27;20437;-70
2021/09/14 08:00:45;;;;;;;24.27;13.03;;;;;;;;;;5137429;27;20438;-70
2021/09/14 08:03:13;;;;;;;17.20;11.30;;;;;;;;;;5137039;27;20452;-71
2021/09/14 08:05:40;;;;;;;14.70;12.60;;;;;;;;;;5136954;27;21094;-70
2021/09/14 08:08:09;;;;;;;14.00;11.27;;;;;;;;;;5136956;27;20528;-71
2021/09/14 08:10:36;;;;;;;14.23;10.20;;;;;;;;;;5136955;27;20949;-70
2021/09/14 08:13:03;;;;;;;13.87;10.90;;;;;;;;;;5136917;27;20442;-71
2021/09/14 08:15:31;;;;;;;12.20;11.07;;;;;;;;;;5137833;27;20455;-71
2021/09/14 08:17:59;;;;;;;11.37;10.23;;;;;;;;;;5137035;27;20446;-70
2021/09/14 08:20:26;;;;;;;16.53;12.17;;;;;;;;;;5136680;27;20936;-71
2021/09/14 08:22:53;;;;;;;18.90;10.40;;;;;;;;;;5137109;27;20464;-71
2021/09/14 08:25:22;;;;;;;13.47;11.93;;;;;;;;;;5137023;27;20451;-71
2021/09/14 08:27:49;;;;;;;13.10;11.73;;;;;;;;;;5137183;27;20474;-71
2021/09/14 08:30:16;;;;;;;14.60;11.30;;;;;;;;;;5136174;27;20457;-71
2021/09/14 08:32:43;;;;;;;14.30;10.20;;;;;;;;;;5136930;27;20461;-71
2021/09/14 08:35:11;;;;;;;12.07;10.93;;;;;;;;;;5136409;27;20466;-71
2021/09/14 08:37:38;;;;;;;16.43;10.70;;;;;;;;;;5136292;27;20450;-71
2021/09/14 08:40:06;;;;;;;12.90;11.47;;;;;;;;;;5136294;27;20935;-71
2021/09/14 08:42:36;;;;;;;15.73;11.97;;;;;;;;;;5136534;27;20551;-71
2021/09/14 08:45:04;;;;;;;12.90;10.33;;;;;;;;;;5136217;27;20569;-71
2021/09/14 08:47:31;;;;;;;19.40;11.87;;;;;;;;;;5136037;27;20473;-71
2021/09/14 08:49:58;;;;;;;18.90;12.07;;;;;;;;;;5136087;27;20442;-72
2021/09/14 08:52:25;;;;;;;12.77;11.43;;;;;;;;;;5136399;27;20521;-72
2021/09/14 08:54:53;;;;;;;33.37;12.70;;;;;;;;;;5136353;27;20529;-70
2021/09/14 08:57:20;;;;;;;24.23;12.87;;;;;;;;;;5136385;27;20539;-70
2021/09/14 08:59:49;;;;;;;27.33;11.73;;;;;;;;;;5136512;27;20449;-71
2021/09/14 09:02:18;;;;;;;18.93;12.70;;;;;;;;;;5136331;27;20447;-70
2021/09/14 09:04:55;;;;;;;43.50;12.73;;;;;;;;;;5136210;27;20447;-71
2021/09/14 09:07:28;;;;;;;12.97;10.43;;;;;;;;;;5136098;27;20514;-70
2021/09/14 09:09:55;;;;;;;16.03;10.70;;;;;;;;;;5136186;27;20515;-71
2021/09/14 09:12:23;;;;;;;22.40;11.03;;;;;;;;;;5135714;27;20950;-71
2021/09/14 09:14:51;;;;;;;15.67;11.40;;;;;;;;;;5136191;27;20492;-71
2021/09/14 09:17:19;;;;;;;12.97;10.80;;;;;;;;;;5135577;27;20552;-70
2021/09/14 09:19:55;;;;;;;14.83;9.70;;;;;;;;;;5135816;27;20436;-70
2021/09/14 09:22:24;;;;;;;36.60;12.40;;;;;;;;;;5135549;27;20423;-71
2021/09/14 09:24:52;;;;;;;19.13;11.50;;;;;;;;;;5135715;27;20440;-71
2021/09/14 09:27:20;;;;;;;29.07;14.23;;;;;;;;;;5135581;27;20491;-72
2021/09/14 09:29:59;;;;;;;11.47;9.73;;;;;;;;;;5135755;27;20444;-71
2021/09/14 09:32:26;;;;;;;24.37;10.10;;;;;;;;;;5135345;27;20477;-71
2021/09/14 09:34:58;;;;;;;81.07;14.83;;;;;;;;;;5135577;27;20514;-71
2021/09/14 09:37:25;;;;;;;92.33;15.87;;;;;;;;;;5135289;27;20439;-71
2021/09/14 09:39:52;;;;;;;51.67;12.90;;;;;;;;;;5135392;27;20790;-71
2021/09/14 09:42:23;;;;;;;13.07;10.53;;;;;;;;;;5135736;27;20465;-71
2021/09/14 09:44:54;;;;;;;12.03;10.93;;;;;;;;;;5135135;27;20915;-71
2021/09/14 09:47:23;;;;;;;14.57;10.87;;;;;;;;;;5134852;27;20486;-71
2021/09/14 09:49:50;;;;;;;11.87;10.63;;;;;;;;;;5135243;27;20523;-71
2021/09/14 09:52:18;;;;;;;13.20;9.17;;;;;;;;;;5135189;27;20483;-71
2021/09/14 09:54:45;;;;;;;12.30;11.07;;;;;;;;;;5134269;27;20925;-71
2021/09/14 09:57:13;;;;;;;10.90;9.47;;;;;;;;;;5135047;27;20438;-71
2021/09/14 09:59:40;;;;;;;11.00;9.10;;;;;;;;;;5134691;27;20524;-71
2021/09/14 10:02:13;;;;;;;12.20;10.10;;;;;;;;;;5134643;27;20963;-72
2021/09/14 10:04:46;;;;;;;10.17;9.17;;;;;;;;;;5135008;27;20423;-71
2021/09/14 10:07:14;;;;;;;113.80;17.50;;;;;;;;;;5134850;27;20559;-71
2021/09/14 10:09:51;;;;;;;34.47;11.63;;;;;;;;;;5134813;27;20494;-71
2021/09/14 10:12:28;;;;;;;173.13;19.57;;;;;;;;;;5134778;27;20442;-71
2021/09/14 10:15:03;;;;;;;109.37;18.30;;;;;;;;;;5134715;27;20439;-71
2021/09/14 10:17:31;;;;;;;29.87;10.60;;;;;;;;;;5134484;27;20534;-71
2021/09/14 10:20:09;;;;;;;28.87;10.60;;;;;;;;;;5134233;27;20452;-71
2021/09/14 10:22:36;;;;;;;15.97;10.97;;;;;;;;;;5135019;27;20422;-72
2021/09/14 10:25:04;;;;;;;12.90;10.00;;;;;;;;;;5134579;27;20534;-72
2021/09/14 10:27:39;;;;;;;37.50;11.60;;;;;;;;;;5134184;27;20515;-72
2021/09/14 10:30:07;;;;;;;118.07;17.47;;;;;;;;;;5135114;27;20443;-72
2021/09/14 10:32:42;;;;;;;232.67;25.03;;;;;;;;;;5134519;27;20441;-71
2021/09/14 10:35:11;;;;;;;20.03;10.57;;;;;;;;;;5134649;27;20540;-71
2021/09/14 10:37:38;;;;;;;29.63;11.57;;;;;;;;;;5134701;27;20445;-71
2021/09/14 10:40:10;;;;;;;16.47;10.43;;;;;;;;;;5134503;27;20450;-71
2021/09/14 10:42:39;;;;;;;36.67;11.93;;;;;;;;;;5134554;27;20440;-71
2021/09/14 10:45:30;;;;;;;93.83;14.33;;;;;;;;;;5134516;28;20874;-72
2021/09/14 10:47:59;;;;;;;48.87;12.50;;;;;;;;;;5134859;28;20474;-72
2021/09/14 10:50:29;;;;;;;20.00;9.93;;;;;;;;;;5133957;28;20800;-71
2021/09/14 10:52:59;;;;;;;20.80;10.17;;;;;;;;;;5134057;28;20430;-72
2021/09/14 10:55:26;;;;;;;13.37;8.90;;;;;;;;;;5134528;28;20852;-72
2021/09/14 10:57:58;;;;;;;22.80;9.47;;;;;;;;;;5134768;28;20439;-72
2021/09/14 11:00:27;;;;;;;25.67;10.30;;;;;;;;;;5134494;28;20778;-72
2021/09/14 11:02:56;;;;;;;23.90;11.80;;;;;;;;;;5133953;28;20535;-71
2021/09/14 11:05:27;;;;;;;23.60;12.10;;;;;;;;;;5133910;27;20472;-72
2021/09/14 11:07:59;;;;;;;20.53;9.33;;;;;;;;;;5137854;27;20465;-71
2021/09/14 11:10:28;;;;;;;10.20;8.87;;;;;;;;;;5138247;27;20914;-71
2021/09/14 11:12:55;;;;;;;8.83;7.33;;;;;;;;;;5138441;27;20794;-71
2021/09/14 11:15:22;;;;;;;9.43;8.10;;;;;;;;;;5138460;27;20444;-71
2021/09/14 11:17:50;;;;;;;9.23;8.43;;;;;;;;;;5137854;27;20965;-71
2021/09/14 11:20:18;;;;;;;9.10;8.20;;;;;;;;;;5137880;27;20929;-71
2021/09/14 11:22:46;;;;;;;8.40;7.63;;;;;;;;;;5137763;27;20448;-72
2021/09/14 11:25:15;;;;;;;9.30;8.47;;;;;;;;;;5138087;27;20524;-71
2021/09/14 11:27:43;;;;;;;8.80;6.83;;;;;;;;;;5138211;27;20777;-72
2021/09/14 11:30:14;;;;;;;8.97;8.20;;;;;;;;;;5137711;27;20781;-72
2021/09/14 11:32:43;;;;;;;8.77;7.97;;;;;;;;;;5137766;27;20433;-72
2021/09/14 11:35:11;;;;;;;8.83;8.03;;;;;;;;;;5137688;27;20441;-72
2021/09/14 11:37:38;;;;;;;9.50;7.50;;;;;;;;;;5137920;27;20450;-73
2021/09/14 11:40:06;;;;;;;8.53;7.50;;;;;;;;;;5137978;27;20441;-72
2021/09/14 11:42:34;;;;;;;8.33;7.17;;;;;;;;;;5137827;27;20784;-72
2021/09/14 11:45:06;;;;;;;10.30;8.00;;;;;;;;;;5137760;27;20558;-72
2021/09/14 11:47:33;;;;;;;12.93;6.83;;;;;;;;;;5138405;27;20466;-72
2021/09/14 11:50:01;;;;;;;8.40;7.60;;;;;;;;;;5138015;27;20480;-72
2021/09/14 11:52:30;;;;;;;8.90;8.10;;;;;;;;;;5138283;27;20450;-72
2021/09/14 11:54:57;;;;;;;9.33;8.40;;;;;;;;;;5137478;27;20448;-72
2021/09/14 11:57:24;;;;;;;8.53;6.37;;;;;;;;;;5137548;27;20460;-72
2021/09/14 11:59:53;;;;;;;7.70;5.73;;;;;;;;;;5137135;27;20436;-72
2021/09/14 12:02:20;;;;;;;6.90;6.30;;;;;;;;;;5137067;27;20437;-72
2021/09/14 12:04:47;;;;;;;6.47;5.87;;;;;;;;;;5137383;27;20521;-72
2021/09/14 12:07:19;;;;;;;7.77;6.97;;;;;;;;;;5137252;27;20480;-72
2021/09/14 12:09:46;;;;;;;10.37;9.37;;;;;;;;;;5136847;27;20498;-72
2021/09/14 12:12:14;;;;;;;9.03;8.00;;;;;;;;;;5137186;27;20438;-72
2021/09/14 12:14:43;;;;;;;11.50;9.33;;;;;;;;;;5137147;27;20445;-72
2021/09/14 12:17:12;;;;;;;9.23;7.90;;;;;;;;;;5136269;27;20532;-72
2021/09/14 12:19:39;;;;;;;8.10;7.30;;;;;;;;;;5137335;27;20438;-72
2021/09/14 12:22:08;;;;;;;8.77;7.87;;;;;;;;;;5136970;27;20426;-72
2021/09/14 12:24:35;;;;;;;8.93;7.10;;;;;;;;;;5136641;27;20953;-72
2021/09/14 12:27:02;;;;;;;8.53;7.73;;;;;;;;;;5137089;27;20486;-72
2021/09/14 12:29:29;;;;;;;7.03;6.50;;;;;;;;;;5136837;27;20433;-72
2021/09/14 12:31:57;;;;;;;6.90;6.30;;;;;;;;;;5136443;27;20558;-72
2021/09/14 12:34:25;;;;;;;6.70;5.90;;;;;;;;;;5136490;27;20434;-72
2021/09/14 12:36:53;;;;;;;7.03;6.37;;;;;;;;;;5136694;27;20430;-72
2021/09/14 12:39:21;;;;;;;7.00;6.10;;;;;;;;;;5136733;27;20438;-72
2021/09/14 12:41:49;;;;;;;7.03;6.20;;;;;;;;;;5137239;27;20438;-72
2021/09/14 12:44:16;;;;;;;7.17;6.47;;;;;;;;;;5136391;27;20470;-72
2021/09/14 12:46:43;;;;;;;8.80;6.50;;;;;;;;;;5137246;27;20455;-72
2021/09/14 12:49:10;;;;;;;11.57;7.10;;;;;;;;;;5136092;27;20479;-72
2021/09/14 12:51:39;;;;;;;6.97;6.07;;;;;;;;;;5135891;27;20438;-72
2021/09/14 12:54:06;;;;;;;7.03;6.43;;;;;;;;;;5136755;27;20562;-72
2021/09/14 12:56:33;;;;;;;6.20;5.60;;;;;;;;;;5135904;27;20972;-72
2021/09/14 12:59:01;;;;;;;6.40;5.90;;;;;;;;;;5137023;27;20539;-72
2021/09/14 13:01:28;;;;;;;10.03;6.00;;;;;;;;;;5135964;27;20922;-72
2021/09/14 13:03:55;;;;;;;8.60;7.37;;;;;;;;;;5136242;27;20768;-72
2021/09/14 13:06:22;;;;;;;5.77;5.23;;;;;;;;;;5136094;27;20441;-72
2021/09/14 13:08:51;;;;;;;6.40;5.80;;;;;;;;;;5136282;27;20472;-72
2021/09/14 13:11:18;;;;;;;7.40;6.60;;;;;;;;;;5135964;27;20443;-72
2021/09/14 13:16:35;;;;;;;6.07;5.47;;;;;;;;;;5135830;27;20459;-72
2021/09/14 13:19:02;;;;;;;6.50;5.90;;;;;;;;;;5135996;27;20431;-72
2021/09/14 13:21:29;;;;;;;7.40;6.70;;;;;;;;;;5135523;27;20445;-73
2021/09/14 13:23:58;;;;;;;7.57;6.80;;;;;;;;;;5135214;27;20950;-72
2021/09/14 13:26:26;;;;;;;11.93;6.80;;;;;;;;;;5135729;27;20446;-70
2021/09/14 13:28:53;;;;;;;7.90;7.20;;;;;;;;;;5134735;27;20476;-74
2021/09/14 13:31:21;;;;;;;7.23;5.63;;;;;;;;;;5135605;27;20793;-77
2021/09/14 13:33:48;;;;;;;10.40;5.80;;;;;;;;;;5136132;27;20530;-76
2021/09/14 13:36:16;;;;;;;6.77;6.20;;;;;;;;;;5135455;27;20440;-76
2021/09/14 13:38:43;;;;;;;7.03;6.33;;;;;;;;;;5135130;27;20440;-74
2021/09/14 13:41:14;;;;;;;6.33;5.77;;;;;;;;;;5135558;27;20442;-74
2021/09/14 13:43:53;;;;;;;5.70;5.30;;;;;;;;;;5135485;27;20429;-73
2021/09/14 13:46:19;;;;;;;6.47;5.93;;;;;;;;;;5133541;27;20423;-74
2021/09/14 13:48:48;;;;;;;6.53;5.83;;;;;;;;;;5133483;27;20480;-75
2021/09/14 13:51:16;;;;;;;6.90;6.30;;;;;;;;;;5133811;27;20458;-74
2021/09/14 13:53:44;;;;;;;6.27;5.50;;;;;;;;;;5133935;27;20520;-75
2021/09/14 13:56:14;;;;;;;7.43;5.13;;;;;;;;;;5134038;27;20446;-73
2021/09/14 13:58:42;;;;;;;5.70;5.23;;;;;;;;;;5134055;27;20437;-73
2021/09/14 14:01:09;;;;;;;9.33;5.40;;;;;;;;;;5134114;27;20531;-73
2021/09/14 14:03:36;;;;;;;6.67;5.97;;;;;;;;;;5134466;27;20942;-73
2021/09/14 14:06:09;;;;;;;6.77;5.80;;;;;;;;;;5134314;27;20448;-73
2021/09/14 14:08:36;;;;;;;9.60;6.17;;;;;;;;;;5133494;27;20563;-74
2021/09/14 14:11:03;;;;;;;7.57;6.43;;;;;;;;;;5134214;27;20444;-73
2021/09/14 14:13:32;;;;;;;5.97;5.30;;;;;;;;;;5134748;27;20497;-72
2021/09/14 14:15:59;;;;;;;5.63;5.13;;;;;;;;;;5134280;27;20446;-73
2021/09/14 14:18:26;;;;;;;6.03;5.43;;;;;;;;;;5119796;27;20804;-73
2021/09/14 14:20:54;;;;;;;5.47;5.07;;;;;;;;;;5113596;28;20452;-73
2021/09/14 14:23:21;;;;;;;6.87;6.10;;;;;;;;;;5113634;28;20441;-73
2021/09/14 14:25:48;;;;;;;7.17;6.50;;;;;;;;;;5113376;28;20471;-73
2021/09/14 14:28:16;;;;;;;5.77;5.30;;;;;;;;;;5113150;28;20565;-73
2021/09/14 14:30:44;;;;;;;8.07;6.13;;;;;;;;;;5112201;28;21025;-73
2021/09/14 14:33:11;;;;;;;9.83;8.03;;;;;;;;;;5113183;28;20476;-73
2021/09/14 14:35:39;;;;;;;12.03;10.80;;;;;;;;;;5113234;28;20446;-73
2021/09/14 14:38:06;;;;;;;11.17;10.07;;;;;;;;;;5112378;28;20791;-73
2021/09/14 14:40:33;;;;;;;8.20;7.40;;;;;;;;;;5113255;28;20432;-73
2021/09/14 14:43:01;;;;;;;7.20;6.50;;;;;;;;;;5112607;28;20961;-73
2021/09/14 14:45:28;;;;;;;10.10;7.27;;;;;;;;;;5113216;28;20822;-73
2021/09/14 14:47:59;;;;;;;15.17;9.40;;;;;;;;;;5111832;28;20544;-73
2021/09/14 14:50:28;;;;;;;11.53;7.93;;;;;;;;;;5112800;28;20931;-73
2021/09/14 14:52:56;;;;;;;11.90;9.30;;;;;;;;;;5113585;28;20445;-73
2021/09/14 14:55:23;;;;;;;8.07;6.70;;;;;;;;;;5112857;28;20442;-73
2021/09/14 14:57:50;;;;;;;12.33;7.70;;;;;;;;;;5113264;28;21005;-73
2021/09/14 15:00:17;;;;;;;11.53;7.30;;;;;;;;;;5113049;28;20442;-74
2021/09/14 15:02:45;;;;;;;6.50;5.93;;;;;;;;;;5113064;28;20488;-74
2021/09/14 15:05:14;;;;;;;9.13;5.93;;;;;;;;;;5113609;28;20439;-74
2021/09/14 15:07:41;;;;;;;6.83;5.70;;;;;;;;;;5113210;28;20444;-75
2021/09/14 15:10:09;;;;;;;5.57;5.07;;;;;;;;;;5113188;28;20997;-73
2021/09/14 15:12:36;;;;;;;8.63;5.23;;;;;;;;;;5112972;28;20439;-74
2021/09/14 15:15:04;;;;;;;6.00;5.40;;;;;;;;;;5113773;28;20453;-74
2021/09/14 15:17:33;;;;;;;6.47;4.80;;;;;;;;;;5113533;28;20449;-74
2021/09/14 15:20:00;;;;;;;11.03;7.27;;;;;;;;;;5111747;28;20448;-72
2021/09/14 15:22:28;;;;;;;7.30;5.87;;;;;;;;;;5113164;28;20448;-73